createdAt,value
2018-04-15T00:00:37.167Z,99.90
2018-04-15T00:03:04.602Z,99.90
2018-04-15T00:05:32.043Z,99.90
2018-04-15T00:07:59.494Z,99.90
2018-04-15T00:10:26.924Z,99.90
2018-04-15T00:12:55.148Z,99.90
2018-04-15T00:15:22.588Z,99.90
2018-04-15T00:17:50.035Z,99.90
2018-04-15T00:20:17.483Z,99.90
2018-04-15T00:22:44.928Z,99.90
2018-04-15T00:25:13.134Z,99.90
2018-04-15T00:27:40.578Z,99.90
2018-04-15T00:30:08.008Z,99.90
2018-04-15T00:32:36.226Z,99.90
2018-04-15T00:35:03.668Z,99.90
2018-04-15T00:37:31.117Z,99.90
2018-04-15T00:39:58.552Z,99.90
2018-04-15T00:42:26.758Z,99.90
2018-04-15T00:44:54.209Z,99.90
2018-04-15T00:47:21.663Z,99.90
2018-04-15T00:49:49.859Z,99.90
2018-04-15T00:52:17.309Z,99.90
2018-04-15T00:54:44.751Z,99.90
2018-04-15T00:57:12.180Z,99.90
2018-04-15T00:59:39.620Z,99.90
2018-04-15T01:02:07.065Z,99.90
2018-04-15T01:04:34.508Z,99.90
2018-04-15T01:07:01.960Z,99.90
2018-04-15T01:09:29.406Z,99.90
2018-04-15T01:11:56.844Z,99.90
2018-04-15T01:14:25.056Z,99.90
2018-04-15T01:16:52.500Z,99.90
2018-04-15T01:19:19.939Z,99.90
2018-04-15T01:21:47.376Z,99.90
2018-04-15T01:24:15.596Z,99.90
2018-04-15T01:26:43.050Z,99.90
2018-04-15T01:29:10.483Z,99.90
2018-04-15T01:31:37.929Z,99.90
2018-04-15T01:34:06.143Z,99.90
2018-04-15T01:36:33.580Z,99.90
2018-04-15T01:39:01.017Z,99.90
2018-04-15T01:41:29.222Z,99.90
2018-04-15T01:43:56.664Z,99.90
2018-04-15T01:46:24.108Z,99.90
2018-04-15T01:48:52.318Z,99.90
2018-04-15T01:51:19.764Z,99.90
2018-04-15T01:53:47.201Z,99.90
2018-04-15T01:56:15.407Z,99.90
2018-04-15T01:58:42.862Z,99.90
2018-04-15T02:01:10.386Z,99.90
2018-04-15T02:03:38.604Z,99.90
2018-04-15T02:06:06.040Z,99.90
2018-04-15T02:08:33.501Z,99.90
2018-04-15T02:11:00.931Z,99.90
2018-04-15T02:13:29.139Z,99.90
2018-04-15T02:15:56.590Z,99.90
2018-04-15T02:18:24.030Z,99.90
2018-04-15T02:20:52.243Z,99.90
2018-04-15T02:23:19.684Z,99.90
2018-04-15T02:25:47.133Z,99.90
2018-04-15T02:28:14.568Z,99.90
2018-04-15T02:30:42.775Z,99.90
2018-04-15T02:33:10.221Z,99.90
2018-04-15T02:35:37.674Z,99.90
2018-04-15T02:38:05.121Z,99.90
2018-04-15T02:40:33.333Z,99.90
2018-04-15T02:43:00.773Z,99.90
2018-04-15T02:45:28.214Z,99.90
2018-04-15T02:47:56.424Z,99.90
2018-04-15T02:50:23.873Z,99.90
2018-04-15T02:52:51.324Z,99.90
2018-04-15T02:55:18.767Z,99.90
2018-04-15T02:57:46.203Z,99.90
2018-04-15T03:00:14.423Z,99.90
2018-04-15T03:02:41.864Z,99.90
2018-04-15T03:05:09.316Z,99.90
2018-04-15T03:07:36.753Z,99.90
2018-04-15T03:10:04.961Z,99.90
2018-04-15T03:12:32.419Z,99.90
2018-04-15T03:14:59.850Z,99.90
2018-04-15T03:17:28.046Z,99.90
2018-04-15T03:19:55.524Z,99.90
2018-04-15T03:22:22.956Z,99.90
2018-04-15T03:24:50.392Z,99.90
2018-04-15T03:27:18.598Z,99.90
2018-04-15T03:29:46.035Z,99.90
2018-04-15T03:32:13.483Z,99.90
2018-04-15T03:34:41.689Z,99.90
2018-04-15T03:37:09.144Z,99.90
2018-04-15T03:39:36.602Z,99.90
2018-04-15T03:42:04.045Z,99.90
2018-04-15T03:44:31.479Z,99.90
2018-04-15T03:46:59.706Z,99.90
2018-04-15T03:49:27.142Z,99.90
2018-04-15T03:51:54.588Z,99.90
2018-04-15T03:54:23.060Z,99.90
2018-04-15T03:56:51.273Z,99.90
2018-04-15T03:59:18.711Z,99.90
2018-04-15T04:01:46.160Z,99.90
2018-04-15T04:04:13.602Z,99.90
2018-04-15T04:06:41.807Z,99.90
2018-04-15T04:09:09.265Z,99.90
2018-04-15T04:11:36.708Z,99.90
2018-04-15T04:14:04.168Z,99.90
2018-04-15T04:16:31.611Z,99.90
2018-04-15T04:19:10.907Z,99.90
2018-04-15T04:21:50.303Z,99.90
2018-04-15T04:24:29.492Z,99.90
2018-04-15T04:26:56.921Z,99.90
2018-04-15T04:29:24.359Z,99.90
2018-04-15T04:31:51.807Z,99.90
2018-04-15T04:34:21.294Z,99.90
2018-04-15T04:36:48.728Z,99.90
2018-04-15T04:39:16.941Z,99.90
2018-04-15T04:41:44.375Z,99.90
2018-04-15T04:44:12.588Z,99.90
2018-04-15T04:46:40.037Z,99.90
2018-04-15T04:49:07.495Z,99.90
2018-04-15T04:51:34.941Z,99.90
2018-04-15T04:54:02.385Z,99.90
2018-04-15T04:56:29.833Z,99.90
2018-04-15T04:58:58.041Z,99.90
2018-04-15T05:01:25.483Z,99.90
2018-04-15T05:03:52.931Z,99.90
2018-04-15T05:06:21.137Z,99.90
2018-04-15T05:08:48.595Z,99.90
2018-04-15T05:11:16.066Z,99.90
2018-04-15T05:13:43.503Z,99.90
2018-04-15T05:16:10.948Z,99.90
2018-04-15T05:18:38.381Z,99.90
2018-04-15T05:21:06.589Z,99.90
2018-04-15T05:23:34.049Z,99.90
2018-04-15T05:26:01.513Z,99.90
2018-04-15T05:28:28.944Z,99.90
2018-04-15T05:30:56.386Z,99.90
2018-04-15T05:33:24.594Z,99.90
2018-04-15T05:35:52.028Z,99.90
2018-04-15T05:38:19.471Z,99.90
2018-04-15T05:40:47.702Z,99.90
2018-04-15T05:43:15.907Z,99.90
2018-04-15T05:45:43.336Z,99.90
2018-04-15T05:48:10.792Z,99.90
2018-04-15T05:50:38.233Z,99.90
2018-04-15T05:53:05.672Z,99.90
2018-04-15T05:55:33.099Z,99.90
2018-04-15T05:58:01.310Z,99.90
2018-04-15T06:00:28.744Z,99.90
2018-04-15T06:02:56.952Z,99.90
2018-04-15T06:05:24.408Z,99.90
2018-04-15T06:07:51.863Z,99.90
2018-04-15T06:10:19.295Z,99.90
2018-04-15T06:12:46.758Z,99.90
2018-04-15T06:15:14.189Z,99.90
2018-04-15T06:17:42.403Z,99.90
2018-04-15T06:20:09.848Z,99.90
2018-04-15T06:22:37.292Z,99.90
2018-04-15T06:25:05.514Z,99.90
2018-04-15T06:27:32.955Z,99.90
2018-04-15T06:30:00.400Z,99.90
2018-04-15T06:32:27.835Z,99.90
2018-04-15T06:34:56.060Z,99.90
2018-04-15T06:37:23.504Z,99.90
2018-04-15T06:39:50.959Z,99.90
2018-04-15T06:42:18.411Z,99.90
2018-04-15T06:44:45.853Z,99.90
2018-04-15T06:47:13.291Z,99.90
2018-04-15T06:49:41.536Z,99.90
2018-04-15T06:52:08.965Z,99.90
2018-04-15T06:54:36.403Z,99.90
2018-04-15T06:57:03.835Z,99.90
2018-04-15T06:59:32.035Z,99.90
2018-04-15T07:01:59.483Z,99.90
2018-04-15T07:04:26.917Z,99.90
2018-04-15T07:06:54.361Z,99.90
2018-04-15T07:09:21.864Z,99.90
2018-04-15T07:11:49.315Z,99.90
2018-04-15T07:14:16.946Z,99.90
2018-04-15T07:16:44.432Z,99.90
2018-04-15T07:19:11.882Z,99.90
2018-04-15T07:21:41.164Z,99.90
2018-04-15T07:24:08.709Z,99.90
2018-04-15T07:26:36.526Z,99.90
2018-04-15T07:29:04.012Z,99.90
2018-04-15T07:31:31.468Z,99.90
2018-04-15T07:33:58.921Z,99.90
2018-04-15T07:36:26.570Z,99.90
2018-04-15T07:38:53.994Z,99.90
2018-04-15T07:41:22.220Z,99.90
2018-04-15T07:43:49.673Z,99.90
2018-04-15T07:46:17.121Z,99.90
2018-04-15T07:48:44.584Z,99.90
2018-04-15T07:51:12.053Z,99.90
2018-04-15T07:53:39.495Z,99.90
2018-04-15T07:56:06.961Z,99.90
2018-04-15T07:58:34.406Z,99.90
2018-04-15T08:01:01.852Z,99.90
2018-04-15T08:03:29.290Z,99.90
2018-04-15T08:05:57.509Z,99.90
2018-04-15T08:08:24.965Z,99.90
2018-04-15T08:10:52.421Z,99.90
2018-04-15T08:13:26.872Z,99.90
2018-04-15T08:15:54.438Z,99.90
2018-04-15T08:18:21.847Z,99.90
2018-04-15T08:20:49.300Z,99.90
2018-04-15T08:23:16.744Z,99.90
2018-04-15T08:25:44.197Z,99.90
2018-04-15T08:28:11.641Z,99.90
2018-04-15T08:30:39.878Z,99.90
2018-04-15T08:33:07.308Z,99.90
2018-04-15T08:35:34.766Z,99.90
2018-04-15T08:38:02.209Z,99.90
2018-04-15T08:40:29.657Z,99.90
2018-04-15T08:42:57.867Z,99.90
2018-04-15T08:45:26.316Z,99.90
2018-04-15T08:47:53.781Z,99.90
2018-04-15T08:50:21.228Z,99.90
2018-04-15T08:52:48.733Z,99.90
2018-04-15T08:55:16.181Z,99.90
2018-04-15T08:57:43.754Z,99.90
2018-04-15T09:00:11.272Z,99.90
2018-04-15T09:02:38.853Z,99.90
2018-04-15T09:05:07.289Z,99.90
2018-04-15T09:07:36.687Z,99.90
2018-04-15T09:10:07.227Z,99.90
2018-04-15T09:12:35.479Z,99.90
2018-04-15T09:15:02.922Z,99.90
2018-04-15T09:17:30.384Z,99.40
2018-04-15T09:19:57.885Z,98.90
2018-04-15T09:22:25.343Z,99.90
2018-04-15T09:24:52.797Z,97.60
2018-04-15T09:27:20.250Z,97.50
2018-04-15T09:29:48.483Z,99.80
2018-04-15T09:32:15.949Z,99.90
2018-04-15T09:34:43.398Z,98.50
2018-04-15T09:37:10.847Z,96.90
2018-04-15T09:39:38.367Z,97.90
2018-04-15T09:42:05.922Z,97.20
2018-04-15T09:44:33.488Z,96.70
2018-04-15T09:47:01.070Z,96.10
2018-04-15T09:49:29.531Z,94.80
2018-04-15T09:51:58.208Z,95.10
2018-04-15T09:54:25.833Z,93.20
2018-04-15T09:56:53.375Z,93.50
2018-04-15T09:59:21.017Z,91.80
2018-04-15T10:01:48.524Z,92.40
2018-04-15T10:04:15.972Z,91.80
2018-04-15T10:06:43.424Z,92.10
2018-04-15T10:09:10.878Z,91.10
2018-04-15T10:11:38.368Z,90.50
2018-04-15T10:14:07.504Z,94.30
2018-04-15T10:16:34.935Z,94.40
2018-04-15T10:19:02.391Z,91.60
2018-04-15T10:21:29.843Z,91.00
2018-04-15T10:23:58.157Z,94.60
2018-04-15T10:26:26.330Z,91.00
2018-04-15T10:28:53.783Z,91.10
2018-04-15T10:31:21.336Z,95.30
2018-04-15T10:33:48.771Z,91.10
2018-04-15T10:36:16.218Z,86.30
2018-04-15T10:38:44.443Z,83.60
2018-04-15T10:41:11.965Z,83.70
2018-04-15T10:43:39.410Z,84.70
2018-04-15T10:46:07.676Z,83.60
2018-04-15T10:48:35.075Z,83.60
2018-04-15T10:51:03.547Z,81.40
2018-04-15T10:53:30.980Z,80.30
2018-04-15T10:55:59.197Z,86.90
2018-04-15T10:58:26.656Z,86.70
2018-04-15T11:00:54.115Z,84.70
2018-04-15T11:03:21.560Z,83.60
2018-04-15T11:05:49.010Z,85.60
2018-04-15T11:08:16.537Z,82.70
2018-04-15T11:10:45.747Z,85.70
2018-04-15T11:13:13.185Z,85.10
2018-04-15T11:15:41.567Z,80.20
2018-04-15T11:18:09.778Z,83.40
2018-04-15T11:20:37.212Z,83.30
2018-04-15T11:23:05.667Z,79.50
2018-04-15T11:25:33.912Z,81.20
2018-04-15T11:28:01.441Z,81.20
2018-04-15T11:30:29.162Z,82.30
2018-04-15T11:32:56.643Z,83.20
2018-04-15T11:35:24.933Z,75.40
2018-04-15T11:37:52.380Z,75.20
2018-04-15T11:40:20.588Z,76.60
2018-04-15T11:42:48.040Z,76.60
2018-04-15T11:45:15.529Z,80.60
2018-04-15T11:47:42.932Z,79.10
2018-04-15T11:50:11.195Z,78.80
2018-04-15T11:52:39.414Z,87.70
2018-04-15T11:55:06.880Z,87.90
2018-04-15T11:57:34.320Z,85.20
2018-04-15T12:00:01.896Z,81.00
2018-04-15T12:02:29.354Z,82.40
2018-04-15T12:04:57.563Z,75.20
2018-04-15T12:07:25.011Z,75.00
2018-04-15T12:09:52.505Z,79.60
2018-04-15T12:12:20.723Z,75.20
2018-04-15T12:14:48.178Z,75.10
2018-04-15T12:17:15.651Z,76.60
2018-04-15T12:19:43.064Z,81.20
2018-04-15T12:22:10.551Z,80.60
2018-04-15T12:24:38.055Z,80.90
2018-04-15T12:27:06.282Z,84.00
2018-04-15T12:29:33.724Z,84.00
2018-04-15T12:32:01.171Z,79.70
2018-04-15T12:34:28.606Z,75.80
2018-04-15T12:36:56.830Z,83.10
2018-04-15T12:39:24.337Z,83.00
2018-04-15T12:41:52.569Z,82.70
2018-04-15T12:44:20.036Z,82.60
2018-04-15T12:46:47.539Z,84.60
2018-04-15T12:49:15.753Z,81.90
2018-04-15T12:51:43.205Z,81.90
2018-04-15T12:54:10.692Z,81.20
2018-04-15T12:56:38.150Z,86.70
2018-04-15T12:59:05.616Z,81.90
2018-04-15T13:01:33.052Z,85.90
2018-04-15T13:04:00.504Z,81.70
2018-04-15T13:06:27.948Z,82.50
2018-04-15T13:08:55.399Z,85.30
2018-04-15T13:11:22.880Z,85.30
2018-04-15T13:13:50.279Z,83.50
2018-04-15T13:16:18.493Z,90.30
2018-04-15T13:18:45.952Z,90.30
2018-04-15T13:21:13.397Z,87.30
2018-04-15T13:23:40.830Z,88.00
2018-04-15T13:26:09.044Z,84.10
2018-04-15T13:28:36.493Z,83.90
2018-04-15T13:31:03.978Z,85.00
2018-04-15T13:33:31.416Z,83.30
2018-04-15T13:35:58.933Z,84.90
2018-04-15T13:38:27.144Z,90.20
2018-04-15T13:40:54.590Z,90.20
2018-04-15T13:43:22.041Z,89.30
2018-04-15T13:45:49.491Z,85.70
2018-04-15T13:48:16.951Z,83.60
2018-04-15T13:50:44.404Z,84.90
2018-04-15T13:53:12.642Z,87.60
2018-04-15T13:55:40.059Z,87.60
2018-04-15T13:58:07.511Z,86.50
2018-04-15T14:00:34.955Z,88.20
2018-04-15T14:03:03.220Z,87.80
2018-04-15T14:05:30.665Z,87.70
2018-04-15T14:07:58.116Z,90.00
2018-04-15T14:10:25.576Z,90.10
2018-04-15T14:12:53.911Z,87.30
2018-04-15T14:15:21.358Z,87.20
2018-04-15T14:17:48.830Z,91.70
2018-04-15T14:20:16.281Z,89.80
2018-04-15T14:22:43.733Z,85.30
2018-04-15T14:25:11.190Z,85.00
2018-04-15T14:27:38.659Z,86.60
2018-04-15T14:30:06.285Z,91.60
2018-04-15T14:32:33.905Z,87.60
2018-04-15T14:35:01.404Z,89.60
2018-04-15T14:37:28.849Z,91.50
2018-04-15T14:39:57.090Z,82.60
2018-04-15T14:42:24.558Z,82.60
2018-04-15T14:44:52.000Z,88.30
2018-04-15T14:47:20.436Z,90.90
2018-04-15T14:49:47.973Z,93.40
2018-04-15T14:52:16.283Z,91.30
2018-04-15T14:54:44.926Z,90.90
2018-04-15T14:57:13.330Z,90.30
2018-04-15T14:59:41.826Z,89.50
2018-04-15T15:02:09.285Z,90.60
2018-04-15T15:04:36.941Z,91.00
2018-04-15T15:07:04.717Z,82.70
2018-04-15T15:09:32.168Z,86.20
2018-04-15T15:11:59.678Z,82.80
2018-04-15T15:14:27.916Z,82.50
2018-04-15T15:16:55.412Z,82.60
2018-04-15T15:19:22.922Z,81.90
2018-04-15T15:21:51.087Z,87.30
2018-04-15T15:24:18.535Z,86.40
2018-04-15T15:26:45.976Z,82.40
2018-04-15T15:29:15.200Z,77.20
2018-04-15T15:31:42.687Z,77.00
2018-04-15T15:34:15.357Z,76.90
2018-04-15T15:36:42.871Z,74.40
2018-04-15T15:39:11.088Z,77.20
2018-04-15T15:41:38.589Z,77.30
2018-04-15T15:44:06.041Z,77.60
2018-04-15T15:46:33.517Z,78.10
2018-04-15T15:49:01.763Z,80.90
2018-04-15T15:51:29.248Z,80.80
2018-04-15T15:53:58.475Z,79.70
2018-04-15T15:56:25.928Z,79.60
2018-04-15T15:58:53.384Z,76.60
2018-04-15T16:01:20.839Z,77.50
2018-04-15T16:03:48.293Z,78.60
2018-04-15T16:06:15.750Z,80.00
2018-04-15T16:08:43.971Z,77.50
2018-04-15T16:11:12.223Z,77.40
2018-04-15T16:13:39.667Z,78.40
2018-04-15T16:16:07.121Z,78.80
2018-04-15T16:18:34.581Z,79.30
2018-04-15T16:21:02.065Z,81.50
2018-04-15T16:23:29.545Z,78.70
2018-04-15T16:25:58.999Z,77.80
2018-04-15T16:28:26.455Z,78.30
2018-04-15T16:30:53.912Z,79.50
2018-04-15T16:33:22.137Z,81.20
2018-04-15T16:35:49.597Z,81.20
2018-04-15T16:38:17.060Z,81.00
2018-04-15T16:40:44.549Z,84.00
2018-04-15T16:43:12.007Z,83.30
2018-04-15T16:45:40.225Z,82.20
2018-04-15T16:48:07.678Z,82.00
2018-04-15T16:50:35.137Z,80.50
2018-04-15T16:53:02.681Z,81.20
2018-04-15T16:55:30.130Z,81.70
2018-04-15T16:57:57.583Z,84.50
2018-04-15T17:00:25.039Z,83.30
2018-04-15T17:02:53.256Z,83.40
2018-04-15T17:05:20.792Z,83.40
2018-04-15T17:07:48.254Z,85.00
2018-04-15T17:10:15.788Z,82.70
2018-04-15T17:12:44.005Z,83.40
2018-04-15T17:15:12.244Z,84.40
2018-04-15T17:17:43.992Z,87.80
2018-04-15T17:20:12.325Z,89.40
2018-04-15T17:22:39.819Z,89.40
2018-04-15T17:25:07.250Z,90.00
2018-04-15T17:27:34.711Z,90.70
2018-04-15T17:30:02.191Z,91.50
2018-04-15T17:32:30.417Z,92.30
2018-04-15T17:34:57.946Z,92.30
2018-04-15T17:37:25.397Z,93.20
2018-04-15T17:39:52.858Z,93.40
2018-04-15T17:42:20.330Z,94.30
2018-04-15T17:44:47.769Z,94.80
2018-04-15T17:47:15.232Z,95.60
2018-04-15T17:49:42.688Z,93.90
2018-04-15T17:52:10.134Z,93.90
2018-04-15T17:54:38.364Z,94.00
2018-04-15T17:57:05.818Z,94.00
2018-04-15T17:59:33.334Z,94.30
2018-04-15T18:02:00.777Z,94.90
2018-04-15T18:04:29.067Z,94.90
2018-04-15T18:06:56.520Z,94.90
2018-04-15T18:09:24.723Z,97.00
2018-04-15T18:11:52.170Z,97.00
2018-04-15T18:14:19.646Z,97.30
2018-04-15T18:16:47.165Z,97.10
2018-04-15T18:19:15.471Z,98.30
2018-04-15T18:21:42.948Z,98.30
2018-04-15T18:24:10.376Z,99.10
2018-04-15T18:26:37.820Z,99.90
2018-04-15T18:29:06.293Z,99.90
2018-04-15T18:31:34.714Z,99.90
2018-04-15T18:34:02.237Z,99.90
2018-04-15T18:36:29.690Z,99.90
2018-04-15T18:38:57.900Z,99.90
2018-04-15T18:41:25.402Z,99.90
2018-04-15T18:43:52.872Z,98.70
2018-04-15T18:46:21.088Z,99.50
2018-04-15T18:48:50.584Z,99.50
2018-04-15T18:51:18.975Z,99.90
2018-04-15T18:53:46.523Z,99.90
2018-04-15T18:56:13.965Z,99.90
2018-04-15T18:58:41.404Z,99.90
2018-04-15T19:01:09.619Z,99.90
2018-04-15T19:03:37.074Z,99.90
2018-04-15T19:06:04.630Z,99.90
2018-04-15T19:08:33.117Z,99.90
2018-04-15T19:11:00.573Z,99.90
2018-04-15T19:13:29.062Z,99.90
2018-04-15T19:15:56.526Z,99.90
2018-04-15T19:18:23.977Z,99.90
2018-04-15T19:20:51.425Z,99.90
2018-04-15T19:23:18.877Z,99.90
2018-04-15T19:25:46.317Z,99.90
2018-04-15T19:28:14.537Z,99.90
2018-04-15T19:30:42.000Z,99.90
2018-04-15T19:33:09.445Z,99.90
2018-04-15T19:35:36.896Z,99.90
2018-04-15T19:38:04.370Z,99.90
2018-04-15T19:40:31.896Z,99.90
2018-04-15T19:42:59.364Z,99.90
2018-04-15T19:45:26.799Z,99.90
2018-04-15T19:47:54.356Z,99.90
2018-04-15T19:50:21.818Z,99.90
2018-04-15T19:52:49.268Z,99.90
2018-04-15T19:55:16.733Z,99.90
2018-04-15T19:57:45.207Z,99.90
2018-04-15T20:00:12.657Z,99.90
2018-04-15T20:02:40.921Z,99.90
2018-04-15T20:05:08.373Z,99.90
2018-04-15T20:07:35.814Z,99.90
2018-04-15T20:10:03.338Z,99.90
2018-04-15T20:12:31.505Z,99.90
2018-04-15T20:14:59.805Z,99.90
2018-04-15T20:17:27.318Z,99.90
2018-04-15T20:19:55.539Z,99.90
2018-04-15T20:22:23.059Z,99.90
2018-04-15T20:24:51.296Z,99.90
2018-04-15T20:27:18.791Z,99.90
2018-04-15T20:29:46.258Z,99.90
2018-04-15T20:32:13.716Z,99.90
2018-04-15T20:34:41.170Z,99.90
2018-04-15T20:37:08.620Z,99.90
2018-04-15T20:39:36.073Z,99.90
2018-04-15T20:42:04.281Z,99.90
2018-04-15T20:44:31.731Z,99.90
2018-04-15T20:46:59.201Z,99.90
2018-04-15T20:49:26.640Z,99.90
2018-04-15T20:51:54.086Z,99.90
2018-04-15T20:54:21.538Z,99.90
2018-04-15T20:56:49.750Z,99.90
2018-04-15T20:59:17.200Z,99.90
2018-04-15T21:01:44.664Z,99.90
2018-04-15T21:04:12.111Z,99.90
2018-04-15T21:06:39.556Z,99.90
2018-04-15T21:09:07.027Z,99.90
2018-04-15T21:11:34.467Z,99.90
2018-04-15T21:14:01.916Z,99.90
2018-04-15T21:16:30.384Z,99.90
2018-04-15T21:18:58.601Z,99.90
2018-04-15T21:21:26.051Z,99.90
2018-04-15T21:23:53.509Z,99.90
2018-04-15T21:26:20.944Z,99.90
2018-04-15T21:28:48.395Z,99.90
2018-04-15T21:31:16.609Z,99.90
2018-04-15T21:33:44.064Z,99.90
2018-04-15T21:36:11.534Z,99.90
2018-04-15T21:38:38.981Z,99.90
2018-04-15T21:41:06.432Z,99.90
2018-04-15T21:43:33.884Z,99.90
2018-04-15T21:46:01.325Z,99.90
2018-04-15T21:48:28.821Z,99.90
2018-04-15T21:50:56.260Z,99.90
2018-04-15T21:53:23.711Z,99.90
2018-04-15T21:55:51.153Z,99.90
2018-04-15T21:58:18.589Z,99.90
2018-04-15T22:00:46.812Z,99.90
2018-04-15T22:03:14.260Z,99.90
2018-04-15T22:05:41.713Z,99.90
2018-04-15T22:08:09.160Z,99.90
2018-04-15T22:10:36.609Z,99.90
2018-04-15T22:13:07.476Z,99.90
2018-04-15T22:15:34.932Z,99.90
2018-04-15T22:18:02.385Z,99.90
2018-04-15T22:20:29.837Z,99.90
2018-04-15T22:23:00.856Z,99.90
2018-04-15T22:25:29.059Z,99.90
2018-04-15T22:27:56.513Z,99.90
2018-04-15T22:30:23.961Z,99.90
2018-04-15T22:32:51.418Z,99.90
2018-04-15T22:35:18.864Z,99.90
2018-04-15T22:37:46.304Z,99.90
2018-04-15T22:40:14.531Z,99.90
2018-04-15T22:42:41.973Z,99.90
2018-04-15T22:45:09.438Z,99.90
2018-04-15T22:47:36.892Z,99.90
2018-04-15T22:50:09.962Z,99.90
2018-04-15T22:52:37.428Z,99.90
2018-04-15T22:55:04.872Z,99.90
2018-04-15T22:57:32.316Z,99.90
2018-04-15T23:00:00.520Z,99.90
2018-04-15T23:02:27.965Z,99.90
2018-04-15T23:04:55.413Z,99.90
2018-04-15T23:07:22.852Z,99.90
2018-04-15T23:09:51.077Z,99.90
2018-04-15T23:12:18.527Z,99.90
2018-04-15T23:14:45.980Z,99.90
2018-04-15T23:17:13.420Z,99.90
2018-04-15T23:19:40.882Z,99.90
2018-04-15T23:22:08.319Z,99.90
2018-04-15T23:24:36.558Z,99.90
2018-04-15T23:27:03.990Z,99.90
2018-04-15T23:29:31.445Z,99.90
2018-04-15T23:31:58.913Z,99.90
2018-04-15T23:34:26.358Z,99.90
2018-04-15T23:36:53.814Z,99.90
2018-04-15T23:39:21.271Z,99.90
2018-04-15T23:41:48.703Z,99.90
2018-04-15T23:44:16.927Z,99.90
2018-04-15T23:46:44.387Z,99.90
2018-04-15T23:49:11.842Z,99.90
2018-04-15T23:51:39.292Z,99.90
2018-04-15T23:54:06.755Z,99.90
2018-04-15T23:56:34.199Z,99.90
2018-04-15T23:59:01.660Z,99.90
